Time;durP1;ratioP1;P1;durP2;ratioP2;P2;SDS_P1;SDS_P2;PMS_P1;PMS_P2;Temp;Humidity;BMP_temperature;BMP_pressure;BME280_temperature;BME280_humidity;BME280_pressure;Samples;Min_cycle;Max_cycle;Signal;HPM_P1;HPM_P2
2021/07/30 00:00:20;;;;;;;8.00;4.40;;;;;;;;;;4992316;28;20047;-61
2021/07/30 00:02:45;;;;;;;8.27;4.63;;;;;;;;;;5010383;28;20030;-61
2021/07/30 00:05:12;;;;;;;6.88;4.35;;;;;;;;;;4989158;28;20421;-61
2021/07/30 00:07:37;;;;;;;7.22;5.05;;;;;;;;;;5004436;28;20034;-60
2021/07/30 00:10:04;;;;;;;6.93;4.35;;;;;;;;;;5010329;28;20492;-60
2021/07/30 00:12:29;;;;;;;7.40;4.75;;;;;;;;;;5007759;28;20030;-60
2021/07/30 00:14:54;;;;;;;5.90;4.00;;;;;;;;;;5011236;28;20100;-60
2021/07/30 00:17:20;;;;;;;7.20;3.95;;;;;;;;;;5009220;28;20032;-60
2021/07/30 00:19:45;;;;;;;9.32;4.63;;;;;;;;;;5008220;28;20116;-60
2021/07/30 00:22:11;;;;;;;8.27;4.65;;;;;;;;;;5008204;28;20104;-60
2021/07/30 00:24:36;;;;;;;6.03;4.57;;;;;;;;;;5009448;28;20030;-60
2021/07/30 00:27:02;;;;;;;8.55;4.30;;;;;;;;;;5008538;28;20470;-60
2021/07/30 00:29:27;;;;;;;8.30;4.82;;;;;;;;;;5007982;28;20545;-59
2021/07/30 00:31:53;;;;;;;6.68;4.50;;;;;;;;;;4992496;28;20021;-60
2021/07/30 00:34:18;;;;;;;7.75;4.65;;;;;;;;;;4991594;28;20048;-61
2021/07/30 00:36:44;;;;;;;10.15;4.75;;;;;;;;;;4991367;28;20502;-61
2021/07/30 00:39:09;;;;;;;10.45;4.95;;;;;;;;;;5008845;28;20198;-60
2021/07/30 00:41:40;;;;;;;7.43;4.40;;;;;;;;;;5009639;28;20033;-60
2021/07/30 00:44:06;;;;;;;6.30;4.20;;;;;;;;;;5008952;28;20030;-60
2021/07/30 00:46:32;;;;;;;11.02;4.70;;;;;;;;;;5009013;28;20041;-60
2021/07/30 00:48:58;;;;;;;7.38;4.72;;;;;;;;;;5008235;28;20400;-61
2021/07/30 00:51:24;;;;;;;5.43;4.35;;;;;;;;;;5007968;28;20022;-61
2021/07/30 00:53:51;;;;;;;7.13;4.82;;;;;;;;;;5008397;28;20033;-60
2021/07/30 00:56:17;;;;;;;6.68;4.78;;;;;;;;;;5008489;28;20034;-60
2021/07/30 00:58:43;;;;;;;6.32;4.28;;;;;;;;;;5007197;28;20469;-60
2021/07/30 01:01:09;;;;;;;7.47;4.88;;;;;;;;;;5007400;28;20060;-60
2021/07/30 01:03:34;;;;;;;5.68;4.60;;;;;;;;;;5008998;28;20054;-60
2021/07/30 01:06:00;;;;;;;8.43;4.47;;;;;;;;;;5008506;28;20021;-60
2021/07/30 01:08:25;;;;;;;7.70;4.55;;;;;;;;;;5005565;28;20025;-60
2021/07/30 01:10:51;;;;;;;7.55;5.10;;;;;;;;;;4990360;28;20026;-60
2021/07/30 01:13:16;;;;;;;5.43;4.20;;;;;;;;;;5007109;28;20382;-61
2021/07/30 01:15:42;;;;;;;9.50;4.50;;;;;;;;;;5007697;28;20036;-61
2021/07/30 01:18:07;;;;;;;9.30;5.05;;;;;;;;;;5007624;28;20137;-60
2021/07/30 01:20:37;;;;;;;6.05;4.72;;;;;;;;;;5008162;28;20044;-61
2021/07/30 01:23:03;;;;;;;;;;;;;;;;;;5006435;28;20041;-61
2021/07/30 01:25:29;;;;;;;7.55;4.28;;;;;;;;;;5022603;28;19917;-60
2021/07/30 01:27:55;;;;;;;6.57;4.95;;;;;;;;;;5005594;28;20400;-60
2021/07/30 01:30:23;;;;;;;6.80;4.70;;;;;;;;;;5008669;28;20053;-61
2021/07/30 01:32:49;;;;;;;6.28;4.28;;;;;;;;;;5007770;28;20033;-60
2021/07/30 01:35:15;;;;;;;9.10;4.70;;;;;;;;;;5009432;28;20028;-60
2021/07/30 01:37:41;;;;;;;7.15;4.55;;;;;;;;;;5006530;28;20406;-60
2021/07/30 01:40:09;;;;;;;6.85;4.50;;;;;;;;;;5024173;28;20225;-60
2021/07/30 01:42:34;;;;;;;9.40;5.00;;;;;;;;;;5006771;28;20120;-61
2021/07/30 01:45:00;;;;;;;5.78;4.70;;;;;;;;;;5007870;28;20085;-60
2021/07/30 01:47:27;;;;;;;8.63;4.75;;;;;;;;;;5007854;28;20041;-60
2021/07/30 01:49:53;;;;;;;7.18;4.47;;;;;;;;;;5008037;28;20030;-60
2021/07/30 01:52:18;;;;;;;6.57;3.97;;;;;;;;;;4989392;28;20508;-60
2021/07/30 01:54:45;;;;;;;6.70;4.68;;;;;;;;;;5006950;28;20128;-60
2021/07/30 01:57:10;;;;;;;6.57;4.38;;;;;;;;;;5008224;28;20519;-60
2021/07/30 01:59:36;;;;;;;6.47;4.32;;;;;;;;;;5005513;28;20038;-60
2021/07/30 02:02:02;;;;;;;5.68;4.35;;;;;;;;;;5003507;28;20132;-61
2021/07/30 02:04:28;;;;;;;7.63;4.45;;;;;;;;;;5007062;28;20038;-61
2021/07/30 02:06:53;;;;;;;6.90;4.45;;;;;;;;;;5006955;28;20030;-61
2021/07/30 02:09:19;;;;;;;9.32;4.70;;;;;;;;;;5005232;28;20037;-61
2021/07/30 02:11:50;;;;;;;7.35;4.18;;;;;;;;;;5007610;28;20037;-61
2021/07/30 02:14:16;;;;;;;6.95;4.70;;;;;;;;;;5007619;28;20029;-60
2021/07/30 02:16:46;;;;;;;8.32;4.88;;;;;;;;;;5006422;28;20042;-61
2021/07/30 02:19:13;;;;;;;7.10;4.65;;;;;;;;;;5007386;28;20087;-61
2021/07/30 02:21:38;;;;;;;8.15;4.20;;;;;;;;;;5005642;28;20113;-61
2021/07/30 02:24:05;;;;;;;8.32;4.57;;;;;;;;;;5006808;28;20113;-61
2021/07/30 02:26:31;;;;;;;7.38;4.40;;;;;;;;;;5008394;28;20465;-61
2021/07/30 02:28:57;;;;;;;6.28;4.40;;;;;;;;;;5006492;28;20034;-60
2021/07/30 02:31:23;;;;;;;7.05;4.50;;;;;;;;;;5007373;28;20034;-61
2021/07/30 02:33:49;;;;;;;5.95;4.10;;;;;;;;;;5007040;28;20034;-60
2021/07/30 02:36:14;;;;;;;5.78;3.92;;;;;;;;;;5007312;28;20519;-60
2021/07/30 02:38:40;;;;;;;6.93;4.28;;;;;;;;;;5006433;28;20050;-60
2021/07/30 02:41:05;;;;;;;9.43;4.70;;;;;;;;;;5008214;28;20041;-60
2021/07/30 02:43:30;;;;;;;5.88;4.30;;;;;;;;;;5007637;28;20136;-60
2021/07/30 02:45:56;;;;;;;6.43;4.15;;;;;;;;;;5007011;28;20523;-60
2021/07/30 02:48:21;;;;;;;7.70;4.68;;;;;;;;;;5007010;28;20084;-62
2021/07/30 02:50:50;;;;;;;7.68;4.80;;;;;;;;;;5005667;28;20026;-61
2021/07/30 02:53:16;;;;;;;6.25;4.47;;;;;;;;;;5006809;28;20044;-61
2021/07/30 02:55:41;;;;;;;7.55;4.70;;;;;;;;;;5006612;28;20033;-61
2021/07/30 02:58:07;;;;;;;7.82;4.70;;;;;;;;;;5005706;28;20030;-59
2021/07/30 03:00:33;;;;;;;9.40;4.47;;;;;;;;;;5005767;28;20026;-61
2021/07/30 03:02:58;;;;;;;8.15;4.47;;;;;;;;;;5005059;28;20018;-61
2021/07/30 03:05:23;;;;;;;5.57;4.28;;;;;;;;;;4989699;28;20037;-61
2021/07/30 03:07:49;;;;;;;6.53;4.78;;;;;;;;;;5005930;28;20025;-61
2021/07/30 03:10:14;;;;;;;7.45;4.45;;;;;;;;;;5006428;28;20022;-61
2021/07/30 03:12:40;;;;;;;7.53;4.40;;;;;;;;;;5005940;28;20084;-61
2021/07/30 03:15:06;;;;;;;7.72;4.10;;;;;;;;;;5005626;28;20105;-60
2021/07/30 03:17:31;;;;;;;6.40;4.28;;;;;;;;;;5006483;28;20064;-61
2021/07/30 03:19:57;;;;;;;5.68;4.55;;;;;;;;;;5006397;28;20065;-61
2021/07/30 03:22:22;;;;;;;6.68;4.40;;;;;;;;;;5009124;28;20109;-61
2021/07/30 03:24:48;;;;;;;6.35;4.50;;;;;;;;;;5005276;28;20601;-61
2021/07/30 03:27:13;;;;;;;6.03;4.60;;;;;;;;;;5010324;28;20081;-61
2021/07/30 03:29:39;;;;;;;5.93;4.47;;;;;;;;;;5006886;28;20030;-61
2021/07/30 03:32:05;;;;;;;6.57;4.50;;;;;;;;;;5008944;28;20381;-60
2021/07/30 03:34:33;;;;;;;8.52;4.70;;;;;;;;;;5008672;28;20080;-61
2021/07/30 03:37:00;;;;;;;6.32;4.88;;;;;;;;;;4993635;28;20599;-60
2021/07/30 03:39:26;;;;;;;6.78;4.85;;;;;;;;;;5007505;28;20480;-61
2021/07/30 03:41:51;;;;;;;6.38;4.40;;;;;;;;;;5012804;28;20036;-60
2021/07/30 03:44:17;;;;;;;8.68;4.68;;;;;;;;;;5009609;28;20033;-61
2021/07/30 03:46:42;;;;;;;8.57;5.18;;;;;;;;;;5009325;28;20041;-61
2021/07/30 03:49:07;;;;;;;8.85;4.53;;;;;;;;;;5010282;28;20026;-60
2021/07/30 03:51:33;;;;;;;8.32;4.82;;;;;;;;;;5010179;28;20044;-60
2021/07/30 03:53:58;;;;;;;8.90;5.43;;;;;;;;;;5009266;28;20033;-60
2021/07/30 03:56:24;;;;;;;7.15;4.90;;;;;;;;;;5009252;28;20045;-61
2021/07/30 03:58:49;;;;;;;10.02;5.15;;;;;;;;;;4991281;28;20091;-61
2021/07/30 04:01:15;;;;;;;9.60;4.95;;;;;;;;;;5009157;28;20036;-61
2021/07/30 04:03:42;;;;;;;8.85;5.30;;;;;;;;;;5009774;28;20522;-60
2021/07/30 04:06:08;;;;;;;10.15;5.50;;;;;;;;;;5010319;28;20030;-60
2021/07/30 04:08:33;;;;;;;8.55;5.22;;;;;;;;;;5009756;28;20522;-60
2021/07/30 04:11:00;;;;;;;7.45;4.78;;;;;;;;;;5010424;28;20464;-60
2021/07/30 04:13:25;;;;;;;9.43;5.05;;;;;;;;;;5008152;28;20030;-60
2021/07/30 04:15:51;;;;;;;7.70;5.38;;;;;;;;;;5009186;28;20389;-60
2021/07/30 04:18:16;;;;;;;8.35;5.47;;;;;;;;;;5007995;28;20457;-60
2021/07/30 04:20:42;;;;;;;9.95;4.88;;;;;;;;;;5009260;28;20061;-60
2021/07/30 04:23:07;;;;;;;9.07;4.90;;;;;;;;;;5008414;28;20033;-61
2021/07/30 04:25:33;;;;;;;8.20;5.30;;;;;;;;;;5008601;28;20378;-60
2021/07/30 04:27:59;;;;;;;15.75;9.95;;;;;;;;;;4991265;28;20036;-60
2021/07/30 04:30:24;;;;;;;12.50;7.88;;;;;;;;;;5008009;28;20113;-61
2021/07/30 04:32:51;;;;;;;11.23;6.00;;;;;;;;;;4991489;28;20044;-61
2021/07/30 04:35:16;;;;;;;9.07;5.28;;;;;;;;;;5009373;28;20464;-60
2021/07/30 04:37:42;;;;;;;23.50;12.75;;;;;;;;;;4990692;28;20100;-61
2021/07/30 04:40:08;;;;;;;14.82;9.10;;;;;;;;;;5009303;28;20092;-60
2021/07/30 04:42:33;;;;;;;13.10;7.00;;;;;;;;;;5009014;28;20079;-60
2021/07/30 04:44:59;;;;;;;9.10;5.45;;;;;;;;;;5004102;28;20026;-61
2021/07/30 04:47:24;;;;;;;8.82;5.97;;;;;;;;;;5008841;28;20064;-61
2021/07/30 04:49:50;;;;;;;8.05;5.43;;;;;;;;;;5010199;28;20087;-60
2021/07/30 04:52:15;;;;;;;7.65;5.38;;;;;;;;;;4992246;28;20046;-61
2021/07/30 04:54:40;;;;;;;9.70;5.28;;;;;;;;;;5009774;28;20028;-60
2021/07/30 04:57:09;;;;;;;14.57;6.00;;;;;;;;;;5009975;28;20272;-61
2021/07/30 04:59:34;;;;;;;9.82;5.47;;;;;;;;;;5007800;28;20026;-61
2021/07/30 05:02:00;;;;;;;9.77;5.72;;;;;;;;;;5007605;28;20511;-60
2021/07/30 05:04:25;;;;;;;9.75;5.50;;;;;;;;;;5007116;28;20033;-61
2021/07/30 05:06:51;;;;;;;11.18;6.97;;;;;;;;;;5008402;28;20396;-60
2021/07/30 05:09:16;;;;;;;11.10;5.95;;;;;;;;;;5009061;28;20030;-59
2021/07/30 05:11:41;;;;;;;6.70;5.15;;;;;;;;;;5007935;28;20060;-59
2021/07/30 05:14:07;;;;;;;7.88;5.32;;;;;;;;;;5008268;28;20396;-59
2021/07/30 05:16:32;;;;;;;7.80;5.38;;;;;;;;;;5009019;28;20775;-60
2021/07/30 05:18:58;;;;;;;7.80;5.35;;;;;;;;;;5007236;28;20111;-59
2021/07/30 05:21:23;;;;;;;7.43;5.95;;;;;;;;;;5008435;28;20584;-59
2021/07/30 05:23:49;;;;;;;8.10;5.90;;;;;;;;;;5006940;28;20602;-59
2021/07/30 05:26:14;;;;;;;8.07;5.30;;;;;;;;;;5008230;28;20473;-58
2021/07/30 05:28:40;;;;;;;10.95;6.03;;;;;;;;;;5007255;28;20034;-59
2021/07/30 05:31:05;;;;;;;10.23;6.75;;;;;;;;;;5007127;28;20108;-59
2021/07/30 05:33:31;;;;;;;7.50;5.43;;;;;;;;;;5000143;28;20117;-60
2021/07/30 05:35:57;;;;;;;9.35;6.18;;;;;;;;;;5003896;28;20064;-59
2021/07/30 05:38:23;;;;;;;11.70;6.20;;;;;;;;;;5005607;28;20038;-60
2021/07/30 05:40:49;;;;;;;9.75;5.70;;;;;;;;;;5006608;28;20030;-59
2021/07/30 05:43:15;;;;;;;8.57;6.07;;;;;;;;;;5005532;28;20030;-59
2021/07/30 05:45:40;;;;;;;10.23;6.90;;;;;;;;;;5009172;28;20124;-59
2021/07/30 05:48:07;;;;;;;15.35;6.60;;;;;;;;;;5004812;28;20026;-59
2021/07/30 05:50:33;;;;;;;10.40;6.65;;;;;;;;;;5007977;28;20369;-59
2021/07/30 05:52:58;;;;;;;10.07;6.55;;;;;;;;;;4989027;28;20030;-59
2021/07/30 05:55:23;;;;;;;10.25;6.18;;;;;;;;;;5004007;28;20117;-59
2021/07/30 05:57:49;;;;;;;11.05;6.85;;;;;;;;;;5005655;28;20030;-59
2021/07/30 06:00:14;;;;;;;10.13;6.80;;;;;;;;;;4983933;28;20038;-60
2021/07/30 06:02:41;;;;;;;10.68;6.50;;;;;;;;;;5003590;28;20509;-59
2021/07/30 06:05:07;;;;;;;10.73;6.90;;;;;;;;;;5005623;28;20040;-59
2021/07/30 06:07:33;;;;;;;13.40;6.95;;;;;;;;;;5005834;28;20112;-59
2021/07/30 06:09:58;;;;;;;12.18;7.20;;;;;;;;;;5006012;28;20600;-59
2021/07/30 06:12:24;;;;;;;13.95;6.50;;;;;;;;;;5005019;28;20041;-59
2021/07/30 06:14:49;;;;;;;9.93;6.55;;;;;;;;;;5004631;28;20053;-59
2021/07/30 06:17:15;;;;;;;9.68;7.10;;;;;;;;;;5008299;28;20436;-59
2021/07/30 06:19:40;;;;;;;9.77;6.63;;;;;;;;;;5005470;28;20153;-59
2021/07/30 06:22:06;;;;;;;11.93;6.70;;;;;;;;;;5007012;28;20053;-59
2021/07/30 06:24:31;;;;;;;8.38;6.35;;;;;;;;;;4993764;28;20061;-60
2021/07/30 06:26:57;;;;;;;10.48;7.13;;;;;;;;;;5003948;28;20045;-59
2021/07/30 06:29:22;;;;;;;9.27;6.55;;;;;;;;;;5006278;28;20039;-60
2021/07/30 06:31:48;;;;;;;12.27;6.30;;;;;;;;;;5005586;28;20048;-59
2021/07/30 06:34:13;;;;;;;10.60;6.47;;;;;;;;;;5005808;28;20033;-59
2021/07/30 06:36:39;;;;;;;9.73;6.65;;;;;;;;;;5004420;28;20128;-59
2021/07/30 06:39:04;;;;;;;8.10;6.25;;;;;;;;;;4971111;28;20037;-59
2021/07/30 06:41:30;;;;;;;9.45;6.38;;;;;;;;;;4987832;28;20024;-61
2021/07/30 06:43:56;;;;;;;10.38;6.97;;;;;;;;;;5006681;28;20030;-60
2021/07/30 06:46:21;;;;;;;10.75;6.32;;;;;;;;;;5006027;28;20770;-60
2021/07/30 06:48:47;;;;;;;9.70;6.72;;;;;;;;;;5003801;28;20080;-60
2021/07/30 06:51:14;;;;;;;9.80;6.18;;;;;;;;;;5005873;28;20306;-60
2021/07/30 06:53:40;;;;;;;10.32;6.28;;;;;;;;;;5005759;28;20030;-60
2021/07/30 06:56:14;;;;;;;14.77;6.72;;;;;;;;;;5006854;28;20507;-60
2021/07/30 06:58:40;;;;;;;7.97;6.03;;;;;;;;;;5008852;28;20048;-60
2021/07/30 07:01:06;;;;;;;9.25;6.78;;;;;;;;;;4992267;28;20503;-60
2021/07/30 07:03:31;;;;;;;9.38;6.10;;;;;;;;;;5006891;28;20045;-60
2021/07/30 07:05:57;;;;;;;9.43;6.28;;;;;;;;;;5001250;28;20432;-59
2021/07/30 07:08:23;;;;;;;10.50;6.40;;;;;;;;;;5007325;28;20045;-59
2021/07/30 07:10:49;;;;;;;7.97;6.22;;;;;;;;;;5011530;28;20044;-59
2021/07/30 07:13:18;;;;;;;9.23;6.32;;;;;;;;;;5008795;28;20088;-58
2021/07/30 07:15:43;;;;;;;8.77;6.72;;;;;;;;;;5011522;28;20038;-59
2021/07/30 07:18:12;;;;;;;10.77;6.80;;;;;;;;;;4992477;28;20494;-58
2021/07/30 07:20:39;;;;;;;10.70;6.80;;;;;;;;;;5010361;28;20061;-59
2021/07/30 07:23:05;;;;;;;8.55;6.20;;;;;;;;;;5009041;28;20048;-61
2021/07/30 07:25:30;;;;;;;9.18;6.30;;;;;;;;;;5009411;28;20112;-58
2021/07/30 07:27:56;;;;;;;11.63;6.50;;;;;;;;;;5010731;28;20032;-59
2021/07/30 07:30:21;;;;;;;9.43;6.93;;;;;;;;;;5009770;28;20071;-60
2021/07/30 07:32:47;;;;;;;9.45;6.53;;;;;;;;;;5008283;28;20026;-59
2021/07/30 07:35:13;;;;;;;9.77;5.93;;;;;;;;;;5010555;28;20026;-59
2021/07/30 07:37:38;;;;;;;10.00;6.28;;;;;;;;;;5008559;28;20549;-59
2021/07/30 07:40:07;;;;;;;8.40;6.00;;;;;;;;;;5008040;28;20025;-59
2021/07/30 07:42:32;;;;;;;8.27;6.50;;;;;;;;;;5008776;28;20061;-62
2021/07/30 07:44:58;;;;;;;8.50;6.10;;;;;;;;;;5008639;28;20139;-59
2021/07/30 07:47:23;;;;;;;8.13;6.07;;;;;;;;;;5008559;28;20144;-61
2021/07/30 07:49:49;;;;;;;8.52;5.88;;;;;;;;;;5007292;28;20099;-59
2021/07/30 07:52:14;;;;;;;10.98;6.88;;;;;;;;;;5008613;28;20396;-59
2021/07/30 07:54:40;;;;;;;7.43;5.65;;;;;;;;;;5008389;28;20439;-60
2021/07/30 07:57:06;;;;;;;8.30;5.45;;;;;;;;;;5002293;28;20032;-60
2021/07/30 07:59:36;;;;;;;9.88;5.47;;;;;;;;;;5008592;28;20053;-60
2021/07/30 08:02:04;;;;;;;8.43;5.18;;;;;;;;;;5009176;28;20064;-60
2021/07/30 08:04:31;;;;;;;8.93;5.80;;;;;;;;;;5008439;28;20034;-60
2021/07/30 08:06:56;;;;;;;10.23;5.93;;;;;;;;;;5005946;28;20033;-61
2021/07/30 08:09:21;;;;;;;7.82;5.97;;;;;;;;;;5007160;28;20044;-60
2021/07/30 08:11:47;;;;;;;9.48;5.57;;;;;;;;;;4991937;28;20184;-60
2021/07/30 08:14:12;;;;;;;7.60;5.70;;;;;;;;;;5009554;28;20393;-60
2021/07/30 08:16:37;;;;;;;9.60;6.10;;;;;;;;;;5008256;28;20029;-60
2021/07/30 08:19:04;;;;;;;10.43;6.60;;;;;;;;;;5007686;28;20033;-60
2021/07/30 08:21:30;;;;;;;11.70;6.65;;;;;;;;;;5009423;28;20034;-60
2021/07/30 08:23:56;;;;;;;9.10;6.10;;;;;;;;;;5008791;28;20041;-60
2021/07/30 08:26:21;;;;;;;10.05;6.20;;;;;;;;;;5006614;28;20449;-61
2021/07/30 08:28:47;;;;;;;9.57;6.53;;;;;;;;;;5007251;28;20398;-60
2021/07/30 08:31:12;;;;;;;8.75;6.40;;;;;;;;;;4971571;28;20121;-60
2021/07/30 08:33:38;;;;;;;9.32;6.20;;;;;;;;;;5008218;28;20281;-60
2021/07/30 08:36:05;;;;;;;9.73;6.22;;;;;;;;;;5008389;28;20026;-60
2021/07/30 08:38:31;;;;;;;10.65;6.32;;;;;;;;;;5007189;28;20034;-60
2021/07/30 08:40:56;;;;;;;11.13;6.80;;;;;;;;;;5008473;28;20115;-60
2021/07/30 08:43:22;;;;;;;12.68;6.15;;;;;;;;;;5008000;28;20112;-61
2021/07/30 08:45:51;;;;;;;8.95;6.20;;;;;;;;;;5007807;28;20041;-60
2021/07/30 08:48:17;;;;;;;7.32;5.85;;;;;;;;;;5005884;28;20037;-60
2021/07/30 08:50:44;;;;;;;10.57;6.43;;;;;;;;;;5006458;28;21250;-60
2021/07/30 08:53:14;;;;;;;12.18;6.30;;;;;;;;;;5007678;28;20018;-60
2021/07/30 08:55:39;;;;;;;9.43;6.22;;;;;;;;;;4991254;28;20377;-60
2021/07/30 08:58:08;;;;;;;9.63;5.95;;;;;;;;;;5017819;28;20025;-60
2021/07/30 09:00:34;;;;;;;7.63;5.80;;;;;;;;;;5003138;28;20036;-60
2021/07/30 09:03:00;;;;;;;7.75;5.90;;;;;;;;;;5006793;28;20034;-60
2021/07/30 09:05:26;;;;;;;7.80;5.88;;;;;;;;;;5008707;28;20045;-61
2021/07/30 09:07:52;;;;;;;9.23;5.85;;;;;;;;;;5005984;28;20535;-60
2021/07/30 09:10:32;;;;;;;9.20;6.03;;;;;;;;;;4992202;28;20172;-60
2021/07/30 09:13:18;;;;;;;8.77;5.90;;;;;;;;;;5008116;28;20113;-60
2021/07/30 09:15:48;;;;;;;7.85;5.97;;;;;;;;;;5007676;28;20038;-61
2021/07/30 09:18:27;;;;;;;9.98;6.25;;;;;;;;;;5006139;28;20401;-60
2021/07/30 09:20:53;;;;;;;;;;;;;;;;;;5003779;28;20108;-61
2021/07/30 09:23:19;;;;;;;17.55;7.70;;;;;;;;;;5008453;28;20008;-61
2021/07/30 09:25:45;;;;;;;8.10;6.00;;;;;;;;;;5007550;28;20090;-60
2021/07/30 09:28:10;;;;;;;9.13;6.32;;;;;;;;;;4990573;28;20045;-60
2021/07/30 09:30:36;;;;;;;9.13;6.20;;;;;;;;;;4989355;28;20100;-60
2021/07/30 09:33:02;;;;;;;9.38;5.95;;;;;;;;;;5004407;28;20128;-60
2021/07/30 09:35:27;;;;;;;10.68;5.82;;;;;;;;;;5006714;28;20021;-60
2021/07/30 09:38:18;;;;;;;7.90;6.65;;;;;;;;;;4974094;28;20503;-60
2021/07/30 09:40:44;;;;;;;8.32;5.95;;;;;;;;;;5007620;28;20041;-61
2021/07/30 09:43:23;;;;;;;8.25;6.30;;;;;;;;;;5005047;28;20405;-60
2021/07/30 09:45:51;;;;;;;9.13;5.90;;;;;;;;;;5006413;28;20165;-61
2021/07/30 09:48:18;;;;;;;9.00;6.80;;;;;;;;;;5006192;28;20037;-60
2021/07/30 09:50:44;;;;;;;7.35;6.07;;;;;;;;;;4990656;28;20033;-61
2021/07/30 09:53:10;;;;;;;10.65;6.65;;;;;;;;;;4989820;28;20022;-61
2021/07/30 09:55:37;;;;;;;9.38;7.13;;;;;;;;;;4989804;28;20075;-61
2021/07/30 09:58:04;;;;;;;8.82;6.75;;;;;;;;;;5006284;28;20036;-60
2021/07/30 10:00:32;;;;;;;7.80;6.50;;;;;;;;;;4988880;28;20438;-61
2021/07/30 10:03:02;;;;;;;8.13;6.63;;;;;;;;;;5007510;28;20029;-61
2021/07/30 10:05:29;;;;;;;10.75;6.60;;;;;;;;;;5007658;28;20029;-61
2021/07/30 10:07:56;;;;;;;8.70;6.75;;;;;;;;;;5007560;28;20036;-61
2021/07/30 10:10:25;;;;;;;11.13;6.63;;;;;;;;;;5005861;28;20045;-61
2021/07/30 10:12:54;;;;;;;8.18;6.60;;;;;;;;;;5007121;28;20026;-61
2021/07/30 10:15:19;;;;;;;;;;;;;;;;;;5007758;28;20436;-61
2021/07/30 10:17:50;;;;;;;7.95;6.15;;;;;;;;;;5006544;28;19917;-61
2021/07/30 10:20:17;;;;;;;8.00;6.32;;;;;;;;;;5006951;28;20052;-61
2021/07/30 10:23:06;;;;;;;7.03;6.32;;;;;;;;;;5006675;28;20037;-61
2021/07/30 10:25:35;;;;;;;9.65;7.10;;;;;;;;;;5006210;28;20025;-62
2021/07/30 10:28:22;;;;;;;10.77;6.40;;;;;;;;;;5005445;28;20025;-61
2021/07/30 10:31:11;;;;;;;8.43;6.93;;;;;;;;;;5008849;28;20040;-61
2021/07/30 10:33:37;;;;;;;;;;;;;;;;;;5009349;28;20415;-58
2021/07/30 10:36:08;;;;;;;11.57;6.68;;;;;;;;;;5010867;28;20291;-58
2021/07/30 10:38:35;;;;;;;8.25;6.85;;;;;;;;;;5011826;28;20022;-58
2021/07/30 10:41:09;;;;;;;9.32;6.93;;;;;;;;;;5011848;28;20029;-58
2021/07/30 10:43:50;;;;;;;8.23;6.38;;;;;;;;;;5009857;28;20045;-58
2021/07/30 10:46:18;;;;;;;8.70;6.93;;;;;;;;;;5009464;28;20575;-58
2021/07/30 10:48:44;;;;;;;8.57;6.90;;;;;;;;;;5009651;28;20092;-60
2021/07/30 10:51:19;;;;;;;7.72;6.90;;;;;;;;;;5009854;28;20053;-60
2021/07/30 10:53:49;;;;;;;7.30;6.40;;;;;;;;;;5009582;28;20114;-59
2021/07/30 10:56:18;;;;;;;7.95;6.45;;;;;;;;;;5007897;28;20029;-59
2021/07/30 10:58:43;;;;;;;14.18;7.30;;;;;;;;;;5009544;28;20100;-59
2021/07/30 11:01:21;;;;;;;9.38;7.25;;;;;;;;;;5010068;28;20469;-59
2021/07/30 11:03:50;;;;;;;8.75;6.78;;;;;;;;;;5008388;28;20026;-60
2021/07/30 11:06:40;;;;;;;9.13;7.43;;;;;;;;;;5008160;28;20041;-60
2021/07/30 11:09:05;;;;;;;13.75;7.03;;;;;;;;;;5007868;28;20024;-59
2021/07/30 11:11:51;;;;;;;9.77;7.53;;;;;;;;;;5010989;28;20037;-59
2021/07/30 11:14:25;;;;;;;9.68;6.72;;;;;;;;;;4990407;28;20049;-60
2021/07/30 11:16:52;;;;;;;9.02;7.03;;;;;;;;;;5008673;28;20053;-60
2021/07/30 11:19:20;;;;;;;8.85;6.85;;;;;;;;;;5009358;28;20029;-60
2021/07/30 11:21:45;;;;;;;9.25;7.90;;;;;;;;;;4991641;28;20033;-59
2021/07/30 11:24:12;;;;;;;9.45;7.28;;;;;;;;;;4992154;28;20038;-60
2021/07/30 11:26:39;;;;;;;9.07;7.10;;;;;;;;;;4993578;28;20083;-60
2021/07/30 11:29:09;;;;;;;9.75;6.93;;;;;;;;;;5009269;28;20034;-60
2021/07/30 11:31:37;;;;;;;9.02;7.47;;;;;;;;;;5008150;28;20447;-60
2021/07/30 11:34:03;;;;;;;8.68;7.40;;;;;;;;;;5008965;28;20054;-60
2021/07/30 11:36:28;;;;;;;9.13;7.57;;;;;;;;;;5010373;28;20756;-60
2021/07/30 11:39:00;;;;;;;9.68;7.53;;;;;;;;;;5008280;28;20040;-60
2021/07/30 11:41:26;;;;;;;8.45;7.50;;;;;;;;;;5008810;28;20129;-60
2021/07/30 11:44:06;;;;;;;8.13;7.03;;;;;;;;;;5008822;28;20332;-61
2021/07/30 11:46:33;;;;;;;9.40;7.28;;;;;;;;;;5022785;28;20070;-60
2021/07/30 11:49:00;;;;;;;8.75;7.55;;;;;;;;;;5007074;28;20026;-60
2021/07/30 11:51:26;;;;;;;8.38;7.40;;;;;;;;;;5008337;28;20420;-61
2021/07/30 11:53:53;;;;;;;12.18;7.10;;;;;;;;;;5010127;28;20105;-60
2021/07/30 11:56:19;;;;;;;8.30;7.00;;;;;;;;;;5008353;28;20133;-60
2021/07/30 11:59:01;;;;;;;9.50;7.88;;;;;;;;;;5009318;28;20037;-60
2021/07/30 12:01:27;;;;;;;8.32;7.43;;;;;;;;;;5004310;28;20021;-60
2021/07/30 12:04:06;;;;;;;8.57;7.47;;;;;;;;;;5007611;28;20084;-61
2021/07/30 12:06:38;;;;;;;12.35;7.00;;;;;;;;;;5006933;28;20033;-61
2021/07/30 12:09:06;;;;;;;8.80;7.20;;;;;;;;;;4991908;28;20148;-60
2021/07/30 12:11:32;;;;;;;7.68;6.88;;;;;;;;;;4991649;28;20033;-61
2021/07/30 12:13:58;;;;;;;10.35;7.03;;;;;;;;;;4991866;28;20108;-61
2021/07/30 12:16:24;;;;;;;11.50;7.53;;;;;;;;;;4991916;28;20092;-62
2021/07/30 12:18:49;;;;;;;9.05;6.53;;;;;;;;;;5006045;28;20033;-60
2021/07/30 12:21:15;;;;;;;7.75;6.32;;;;;;;;;;5006870;28;20037;-62
2021/07/30 12:23:40;;;;;;;9.65;7.70;;;;;;;;;;5008801;28;20045;-63
2021/07/30 12:26:06;;;;;;;8.23;7.38;;;;;;;;;;5008547;28;20061;-63
2021/07/30 12:28:39;;;;;;;9.85;8.35;;;;;;;;;;5008123;28;20069;-62
2021/07/30 12:31:14;;;;;;;14.95;7.70;;;;;;;;;;5008712;28;20126;-62
2021/07/30 12:33:40;;;;;;;8.55;7.60;;;;;;;;;;5008062;28;20488;-62
2021/07/30 12:36:10;;;;;;;8.60;7.20;;;;;;;;;;5009510;28;20121;-62
2021/07/30 12:38:53;;;;;;;8.40;7.28;;;;;;;;;;5006626;28;20025;-63
2021/07/30 12:41:27;;;;;;;11.90;8.02;;;;;;;;;;5007154;28;20030;-62
2021/07/30 12:43:53;;;;;;;7.93;7.18;;;;;;;;;;5006262;28;20053;-62
2021/07/30 12:46:39;;;;;;;11.20;7.53;;;;;;;;;;5005107;28;20131;-61
2021/07/30 12:49:10;;;;;;;9.13;7.13;;;;;;;;;;5022424;28;20030;-62
2021/07/30 12:51:36;;;;;;;8.90;7.43;;;;;;;;;;5007110;28;20450;-61
2021/07/30 12:54:07;;;;;;;8.93;7.57;;;;;;;;;;5007969;28;20061;-61
2021/07/30 12:57:00;;;;;;;9.80;7.82;;;;;;;;;;5006589;28;20030;-62
2021/07/30 12:59:59;;;;;;;9.75;7.70;;;;;;;;;;5005780;28;20030;-62
2021/07/30 13:02:27;;;;;;;9.43;7.70;;;;;;;;;;5006755;28;20029;-62
2021/07/30 13:04:54;;;;;;;9.02;7.78;;;;;;;;;;5008324;28;20030;-61
2021/07/30 13:07:21;;;;;;;11.23;7.47;;;;;;;;;;5006933;28;20518;-61
2021/07/30 13:09:47;;;;;;;9.98;8.00;;;;;;;;;;5005712;28;20464;-62
2021/07/30 13:12:12;;;;;;;10.88;7.85;;;;;;;;;;5007642;28;20030;-62
2021/07/30 13:14:38;;;;;;;10.02;8.02;;;;;;;;;;5006447;28;20104;-62
2021/07/30 13:17:04;;;;;;;10.82;8.18;;;;;;;;;;5005447;28;20065;-64
2021/07/30 13:19:29;;;;;;;9.93;7.65;;;;;;;;;;5005363;28;20038;-62
2021/07/30 13:21:55;;;;;;;8.43;7.63;;;;;;;;;;5005248;28;20072;-62
2021/07/30 13:24:21;;;;;;;10.50;8.43;;;;;;;;;;5008259;28;20408;-62
2021/07/30 13:26:48;;;;;;;12.73;7.85;;;;;;;;;;5005710;28;20060;-62
2021/07/30 13:29:13;;;;;;;10.13;8.45;;;;;;;;;;5008682;28;20030;-63
2021/07/30 13:31:39;;;;;;;9.30;7.97;;;;;;;;;;5003686;28;20032;-63
2021/07/30 13:34:05;;;;;;;10.15;8.05;;;;;;;;;;5005317;28;20163;-63
2021/07/30 13:36:31;;;;;;;9.68;7.90;;;;;;;;;;5007241;28;20372;-63
2021/07/30 13:38:56;;;;;;;11.48;8.18;;;;;;;;;;4989649;28;20457;-63
2021/07/30 13:41:22;;;;;;;9.77;7.97;;;;;;;;;;5004933;28;20045;-64
2021/07/30 13:43:47;;;;;;;10.50;8.38;;;;;;;;;;5006321;28;20022;-63
2021/07/30 13:46:12;;;;;;;10.05;7.97;;;;;;;;;;4993827;28;20026;-63
2021/07/30 13:48:38;;;;;;;11.98;8.52;;;;;;;;;;5005218;28;20370;-63
2021/07/30 13:51:04;;;;;;;10.27;8.30;;;;;;;;;;5006555;28;20089;-63
2021/07/30 13:53:30;;;;;;;11.07;9.55;;;;;;;;;;5006965;28;20435;-63
2021/07/30 13:55:56;;;;;;;9.75;8.52;;;;;;;;;;4985897;28;20029;-63
2021/07/30 13:58:22;;;;;;;11.05;7.90;;;;;;;;;;5007073;28;20056;-62
2021/07/30 14:00:48;;;;;;;11.27;8.90;;;;;;;;;;5006491;28;20026;-61
2021/07/30 14:03:14;;;;;;;12.27;7.93;;;;;;;;;;5005662;28;20572;-61
2021/07/30 14:05:46;;;;;;;10.10;8.57;;;;;;;;;;5003509;28;20128;-61
2021/07/30 14:08:16;;;;;;;9.27;8.07;;;;;;;;;;5007225;28;20018;-62
2021/07/30 14:10:45;;;;;;;9.73;8.15;;;;;;;;;;5005041;28;20017;-61
2021/07/30 14:13:10;;;;;;;10.65;8.80;;;;;;;;;;5006266;28;20427;-61
2021/07/30 14:15:36;;;;;;;11.15;8.50;;;;;;;;;;5006151;28;20150;-62
2021/07/30 14:18:06;;;;;;;14.05;8.75;;;;;;;;;;5006111;28;20140;-61
2021/07/30 14:20:32;;;;;;;9.68;7.90;;;;;;;;;;5008996;28;20048;-61
2021/07/30 14:23:01;;;;;;;12.00;8.40;;;;;;;;;;5006250;28;20522;-61
2021/07/30 14:25:27;;;;;;;11.63;8.07;;;;;;;;;;5006548;28;20033;-61
2021/07/30 14:27:52;;;;;;;10.15;8.65;;;;;;;;;;5006172;28;20034;-61
2021/07/30 14:30:18;;;;;;;13.68;8.48;;;;;;;;;;5020861;28;20025;-62
2021/07/30 14:32:43;;;;;;;9.52;8.30;;;;;;;;;;5006389;28;20105;-62
2021/07/30 14:35:10;;;;;;;10.52;8.75;;;;;;;;;;5007239;28;20112;-63
2021/07/30 14:37:36;;;;;;;12.15;8.57;;;;;;;;;;5007687;28;20053;-62
2021/07/30 14:40:04;;;;;;;11.35;8.90;;;;;;;;;;4989151;28;20080;-62